sensor_id;sensor_type;location;lat;lon;timestamp;pressure;altitude;pressure_sealevel;temperature;humidity
52923;BME280;38796;42.702;23.306;2022-07-29T00:01:38;95400.50;;;19.83;76.80
52923;BME280;38796;42.702;23.306;2022-07-29T00:03:37;95404.28;;;19.88;76.66
52923;BME280;38796;42.702;23.306;2022-07-29T00:05:36;95402.41;;;19.89;76.39
52923;BME280;38796;42.702;23.306;2022-07-29T00:07:36;95418.81;;;19.86;76.86
52923;BME280;38796;42.702;23.306;2022-07-29T00:09:34;95418.25;;;19.90;76.22
52923;BME280;38796;42.702;23.306;2022-07-29T00:11:48;95415.78;;;19.89;76.22
52923;BME280;38796;42.702;23.306;2022-07-29T00:13:46;95417.66;;;19.74;77.26
52923;BME280;38796;42.702;23.306;2022-07-29T00:15:47;95419.09;;;19.61;77.46
52923;BME280;38796;42.702;23.306;2022-07-29T00:17:45;95417.84;;;19.57;78.29
52923;BME280;38796;42.702;23.306;2022-07-29T00:19:44;95413.34;;;19.43;79.13
52923;BME280;38796;42.702;23.306;2022-07-29T00:21:43;95414.91;;;19.37;79.50
52923;BME280;38796;42.702;23.306;2022-07-29T00:23:41;95413.16;;;19.44;79.51
52923;BME280;38796;42.702;23.306;2022-07-29T00:25:39;95413.34;;;19.43;79.86
52923;BME280;38796;42.702;23.306;2022-07-29T00:27:38;95411.88;;;19.40;80.04
52923;BME280;38796;42.702;23.306;2022-07-29T00:29:36;95414.34;;;19.57;78.92
52923;BME280;38796;42.702;23.306;2022-07-29T00:31:35;95416.66;;;19.45;79.47
52923;BME280;38796;42.702;23.306;2022-07-29T00:33:33;95414.72;;;19.39;80.29
52923;BME280;38796;42.702;23.306;2022-07-29T00:35:33;95417.03;;;19.27;81.75
52923;BME280;38796;42.702;23.306;2022-07-29T00:37:43;95412.72;;;19.11;82.46
52923;BME280;38796;42.702;23.306;2022-07-29T00:39:41;95417.28;;;19.03;83.56
52923;BME280;38796;42.702;23.306;2022-07-29T00:41:39;95418.56;;;18.92;84.25
52923;BME280;38796;42.702;23.306;2022-07-29T00:43:38;95430.91;;;18.93;84.97
52923;BME280;38796;42.702;23.306;2022-07-29T00:45:36;95422.81;;;18.63;84.96
52923;BME280;38796;42.702;23.306;2022-07-29T00:47:34;95420.03;;;18.57;85.65
52923;BME280;38796;42.702;23.306;2022-07-29T00:49:33;95417.78;;;18.45;86.12
52923;BME280;38796;42.702;23.306;2022-07-29T00:51:34;95420.72;;;18.36;87.09
52923;BME280;38796;42.702;23.306;2022-07-29T00:53:34;95431.63;;;18.26;86.96
52923;BME280;38796;42.702;23.306;2022-07-29T00:55:33;95431.31;;;18.21;87.34
52923;BME280;38796;42.702;23.306;2022-07-29T00:57:32;95431.16;;;18.22;87.01
52923;BME280;38796;42.702;23.306;2022-07-29T00:59:31;95421.25;;;18.08;87.48
52923;BME280;38796;42.702;23.306;2022-07-29T01:01:31;95415.97;;;18.00;87.91
52923;BME280;38796;42.702;23.306;2022-07-29T01:03:29;95416.63;;;18.02;88.37
52923;BME280;38796;42.702;23.306;2022-07-29T01:05:28;95415.69;;;18.18;87.61
52923;BME280;38796;42.702;23.306;2022-07-29T01:07:49;95417.81;;;17.99;88.38
52923;BME280;38796;42.702;23.306;2022-07-29T01:09:49;95419.63;;;17.99;88.52
52923;BME280;38796;42.702;23.306;2022-07-29T01:11:48;95418.66;;;18.00;88.40
52923;BME280;38796;42.702;23.306;2022-07-29T01:13:47;95408.34;;;17.97;88.37
52923;BME280;38796;42.702;23.306;2022-07-29T01:15:51;95404.78;;;18.05;87.81
52923;BME280;38796;42.702;23.306;2022-07-29T01:17:59;95405.91;;;18.10;87.24
52923;BME280;38796;42.702;23.306;2022-07-29T01:20:07;95400.63;;;18.02;87.93
52923;BME280;38796;42.702;23.306;2022-07-29T01:22:27;95398.22;;;17.92;88.67
52923;BME280;38796;42.702;23.306;2022-07-29T01:24:57;95400.22;;;17.90;88.95
52923;BME280;38796;42.702;23.306;2022-07-29T01:27:05;95392.03;;;17.92;88.94
52923;BME280;38796;42.702;23.306;2022-07-29T01:29:17;95392.88;;;17.92;89.17
52923;BME280;38796;42.702;23.306;2022-07-29T01:31:22;95396.38;;;17.93;88.90
52923;BME280;38796;42.702;23.306;2022-07-29T01:33:25;95394.69;;;17.92;89.23
52923;BME280;38796;42.702;23.306;2022-07-29T01:35:43;95387.78;;;18.06;88.22
52923;BME280;38796;42.702;23.306;2022-07-29T01:37:45;95379.72;;;18.14;87.71
52923;BME280;38796;42.702;23.306;2022-07-29T01:39:46;95379.25;;;18.10;87.74
52923;BME280;38796;42.702;23.306;2022-07-29T01:41:50;95382.56;;;18.12;87.91
52923;BME280;38796;42.702;23.306;2022-07-29T01:43:54;95388.66;;;18.21;87.45
52923;BME280;38796;42.702;23.306;2022-07-29T01:45:58;95390.81;;;18.25;87.37
52923;BME280;38796;42.702;23.306;2022-07-29T01:48:02;95383.63;;;18.26;87.51
52923;BME280;38796;42.702;23.306;2022-07-29T01:50:05;95382.16;;;18.23;87.50
52923;BME280;38796;42.702;23.306;2022-07-29T01:52:05;95388.84;;;18.19;87.72
52923;BME280;38796;42.702;23.306;2022-07-29T01:54:10;95391.16;;;18.22;87.77
52923;BME280;38796;42.702;23.306;2022-07-29T01:56:13;95380.84;;;18.19;87.67
52923;BME280;38796;42.702;23.306;2022-07-29T01:58:14;95384.81;;;18.23;87.89
52923;BME280;38796;42.702;23.306;2022-07-29T02:00:16;95380.97;;;18.26;87.89
52923;BME280;38796;42.702;23.306;2022-07-29T02:02:18;95377.41;;;18.34;87.43
52923;BME280;38796;42.702;23.306;2022-07-29T02:04:17;95374.75;;;18.34;87.19
52923;BME280;38796;42.702;23.306;2022-07-29T02:06:25;95373.63;;;18.28;87.60
52923;BME280;38796;42.702;23.306;2022-07-29T02:08:26;95369.38;;;18.19;88.20
52923;BME280;38796;42.702;23.306;2022-07-29T02:10:29;95367.53;;;18.19;88.32
52923;BME280;38796;42.702;23.306;2022-07-29T02:12:29;95369.72;;;18.16;88.64
52923;BME280;38796;42.702;23.306;2022-07-29T02:14:33;95373.16;;;18.24;88.27
52923;BME280;38796;42.702;23.306;2022-07-29T02:16:33;95372.28;;;18.09;89.19
52923;BME280;38796;42.702;23.306;2022-07-29T02:18:36;95365.38;;;18.00;89.60
52923;BME280;38796;42.702;23.306;2022-07-29T02:20:36;95378.31;;;18.03;89.75
52923;BME280;38796;42.702;23.306;2022-07-29T02:22:38;95377.31;;;18.04;89.84
52923;BME280;38796;42.702;23.306;2022-07-29T02:24:37;95360.72;;;17.94;89.52
52923;BME280;38796;42.702;23.306;2022-07-29T02:26:38;95362.72;;;17.92;89.97
52923;BME280;38796;42.702;23.306;2022-07-29T02:28:39;95359.09;;;17.93;89.68
52923;BME280;38796;42.702;23.306;2022-07-29T02:30:40;95365.53;;;17.98;89.01
52923;BME280;38796;42.702;23.306;2022-07-29T02:32:40;95354.00;;;18.21;87.64
52923;BME280;38796;42.702;23.306;2022-07-29T02:34:41;95360.94;;;18.30;86.77
52923;BME280;38796;42.702;23.306;2022-07-29T02:36:42;95352.59;;;18.33;86.68
52923;BME280;38796;42.702;23.306;2022-07-29T02:38:45;95349.69;;;18.43;86.28
52923;BME280;38796;42.702;23.306;2022-07-29T02:40:51;95348.91;;;18.34;86.89
52923;BME280;38796;42.702;23.306;2022-07-29T02:42:50;95346.97;;;18.28;87.13
52923;BME280;38796;42.702;23.306;2022-07-29T02:44:49;95352.34;;;18.43;87.03
52923;BME280;38796;42.702;23.306;2022-07-29T02:46:52;95347.66;;;18.45;87.05
52923;BME280;38796;42.702;23.306;2022-07-29T02:48:56;95353.66;;;18.47;87.15
52923;BME280;38796;42.702;23.306;2022-07-29T02:51:03;95355.13;;;18.64;86.47
52923;BME280;38796;42.702;23.306;2022-07-29T02:53:08;95358.75;;;18.71;86.23
52923;BME280;38796;42.702;23.306;2022-07-29T02:55:15;95355.41;;;18.69;86.81
52923;BME280;38796;42.702;23.306;2022-07-29T02:57:19;95354.59;;;18.69;87.02
52923;BME280;38796;42.702;23.306;2022-07-29T02:59:22;95350.91;;;18.70;87.00
52923;BME280;38796;42.702;23.306;2022-07-29T03:01:23;95351.00;;;18.62;87.58
52923;BME280;38796;42.702;23.306;2022-07-29T03:03:22;95349.78;;;18.64;87.50
52923;BME280;38796;42.702;23.306;2022-07-29T03:05:23;95350.81;;;18.63;87.92
52923;BME280;38796;42.702;23.306;2022-07-29T03:07:24;95353.06;;;18.75;87.29
52923;BME280;38796;42.702;23.306;2022-07-29T03:09:23;95356.09;;;18.71;87.36
52923;BME280;38796;42.702;23.306;2022-07-29T03:11:22;95343.94;;;18.69;87.63
52923;BME280;38796;42.702;23.306;2022-07-29T03:13:41;95353.44;;;18.48;88.40
52923;BME280;38796;42.702;23.306;2022-07-29T03:15:40;95352.34;;;18.43;88.94
52923;BME280;38796;42.702;23.306;2022-07-29T03:17:40;95352.81;;;18.46;88.73
52923;BME280;38796;42.702;23.306;2022-07-29T03:19:39;95356.03;;;18.57;88.06
52923;BME280;38796;42.702;23.306;2022-07-29T03:21:38;95357.25;;;18.54;87.99
52923;BME280;38796;42.702;23.306;2022-07-29T03:23:43;95355.09;;;18.49;88.32
52923;BME280;38796;42.702;23.306;2022-07-29T03:25:42;95357.38;;;18.38;89.04
52923;BME280;38796;42.702;23.306;2022-07-29T03:27:41;95357.63;;;18.28;89.36
52923;BME280;38796;42.702;23.306;2022-07-29T03:29:40;95351.34;;;18.21;89.76
52923;BME280;38796;42.702;23.306;2022-07-29T03:31:45;95356.41;;;18.16;90.52
52923;BME280;38796;42.702;23.306;2022-07-29T03:33:44;95355.25;;;18.10;90.60
52923;BME280;38796;42.702;23.306;2022-07-29T03:35:42;95363.25;;;18.33;89.51
52923;BME280;38796;42.702;23.306;2022-07-29T03:37:40;95364.19;;;18.40;88.74
52923;BME280;38796;42.702;23.306;2022-07-29T03:39:41;95358.25;;;18.15;90.14
52923;BME280;38796;42.702;23.306;2022-07-29T03:41:41;95355.38;;;18.17;90.08
52923;BME280;38796;42.702;23.306;2022-07-29T03:43:42;95369.13;;;18.29;89.84
52923;BME280;38796;42.702;23.306;2022-07-29T03:45:48;95357.97;;;18.48;88.61
52923;BME280;38796;42.702;23.306;2022-07-29T03:47:50;95367.09;;;18.54;87.98
52923;BME280;38796;42.702;23.306;2022-07-29T03:49:59;95364.03;;;18.57;87.68
52923;BME280;38796;42.702;23.306;2022-07-29T03:51:58;95369.19;;;18.58;87.83
52923;BME280;38796;42.702;23.306;2022-07-29T03:53:56;95374.31;;;18.45;88.61
52923;BME280;38796;42.702;23.306;2022-07-29T03:55:59;95369.28;;;18.50;88.70
52923;BME280;38796;42.702;23.306;2022-07-29T03:57:58;95372.38;;;18.77;87.94
52923;BME280;38796;42.702;23.306;2022-07-29T03:59:59;95374.50;;;19.40;84.71
52923;BME280;38796;42.702;23.306;2022-07-29T04:02:00;95376.84;;;20.23;79.84
52923;BME280;38796;42.702;23.306;2022-07-29T04:04:00;95380.56;;;20.93;76.77
52923;BME280;38796;42.702;23.306;2022-07-29T04:06:00;95371.84;;;21.19;74.84
52923;BME280;38796;42.702;23.306;2022-07-29T04:07:59;95372.09;;;21.65;72.60
52923;BME280;38796;42.702;23.306;2022-07-29T04:09:57;95368.66;;;21.91;71.95
52923;BME280;38796;42.702;23.306;2022-07-29T04:11:57;95372.47;;;22.17;70.05
52923;BME280;38796;42.702;23.306;2022-07-29T04:13:59;95368.03;;;21.76;71.48
52923;BME280;38796;42.702;23.306;2022-07-29T04:15:58;95375.53;;;22.00;70.63
52923;BME280;38796;42.702;23.306;2022-07-29T04:17:56;95363.75;;;22.01;70.63
52923;BME280;38796;42.702;23.306;2022-07-29T04:19:54;95356.59;;;22.35;69.03
52923;BME280;38796;42.702;23.306;2022-07-29T04:21:53;95365.38;;;23.55;65.33
52923;BME280;38796;42.702;23.306;2022-07-29T04:23:51;95358.97;;;23.43;64.73
52923;BME280;38796;42.702;23.306;2022-07-29T04:25:49;95360.72;;;23.82;63.42
52923;BME280;38796;42.702;23.306;2022-07-29T04:27:49;95368.44;;;23.59;63.47
52923;BME280;38796;42.702;23.306;2022-07-29T04:29:59;95363.72;;;23.99;61.48
52923;BME280;38796;42.702;23.306;2022-07-29T04:31:58;95371.16;;;24.04;61.15
52923;BME280;38796;42.702;23.306;2022-07-29T04:33:56;95368.56;;;24.54;58.49
52923;BME280;38796;42.702;23.306;2022-07-29T04:35:54;95370.38;;;24.28;58.55
52923;BME280;38796;42.702;23.306;2022-07-29T04:37:53;95382.84;;;25.04;57.23
52923;BME280;38796;42.702;23.306;2022-07-29T04:39:51;95383.22;;;25.33;55.71
52923;BME280;38796;42.702;23.306;2022-07-29T04:41:49;95381.28;;;25.58;54.67
52923;BME280;38796;42.702;23.306;2022-07-29T04:43:53;95375.31;;;25.13;55.50
52923;BME280;38796;42.702;23.306;2022-07-29T04:45:53;95378.09;;;24.81;56.79
52923;BME280;38796;42.702;23.306;2022-07-29T04:47:51;95384.22;;;23.93;59.85
52923;BME280;38796;42.702;23.306;2022-07-29T04:49:50;95385.81;;;23.69;60.51
52923;BME280;38796;42.702;23.306;2022-07-29T04:51:48;95387.22;;;23.72;60.35
52923;BME280;38796;42.702;23.306;2022-07-29T04:53:47;95386.69;;;23.37;61.38
52923;BME280;38796;42.702;23.306;2022-07-29T04:55:45;95386.34;;;23.00;62.96
52923;BME280;38796;42.702;23.306;2022-07-29T04:57:43;95390.28;;;22.97;63.10
52923;BME280;38796;42.702;23.306;2022-07-29T04:59:43;95392.31;;;22.82;63.67
52923;BME280;38796;42.702;23.306;2022-07-29T05:01:41;95393.53;;;23.26;62.89
52923;BME280;38796;42.702;23.306;2022-07-29T05:03:40;95392.47;;;23.40;62.47
52923;BME280;38796;42.702;23.306;2022-07-29T05:05:38;95383.56;;;23.46;62.28
52923;BME280;38796;42.702;23.306;2022-07-29T05:07:37;95390.38;;;23.56;60.90
52923;BME280;38796;42.702;23.306;2022-07-29T05:09:35;95382.66;;;23.72;60.65
52923;BME280;38796;42.702;23.306;2022-07-29T05:11:34;95392.81;;;23.64;60.44
52923;BME280;38796;42.702;23.306;2022-07-29T05:13:32;95389.34;;;24.02;58.96
52923;BME280;38796;42.702;23.306;2022-07-29T05:15:43;95387.22;;;24.17;58.98
52923;BME280;38796;42.702;23.306;2022-07-29T05:17:41;95391.72;;;24.23;58.13
52923;BME280;38796;42.702;23.306;2022-07-29T05:19:40;95393.00;;;24.20;58.73
52923;BME280;38796;42.702;23.306;2022-07-29T05:21:38;95394.25;;;24.18;58.07
52923;BME280;38796;42.702;23.306;2022-07-29T05:23:36;95394.31;;;24.05;57.82
52923;BME280;38796;42.702;23.306;2022-07-29T05:25:34;95396.63;;;23.94;58.18
52923;BME280;38796;42.702;23.306;2022-07-29T05:27:40;95392.59;;;23.72;58.89
52923;BME280;38796;42.702;23.306;2022-07-29T05:29:38;95392.03;;;23.43;60.47
52923;BME280;38796;42.702;23.306;2022-07-29T05:31:42;95389.41;;;23.30;60.92
52923;BME280;38796;42.702;23.306;2022-07-29T05:33:40;95390.97;;;23.58;60.53
52923;BME280;38796;42.702;23.306;2022-07-29T05:35:39;95396.75;;;23.55;60.34
52923;BME280;38796;42.702;23.306;2022-07-29T05:37:37;95396.72;;;23.74;59.52
52923;BME280;38796;42.702;23.306;2022-07-29T05:39:35;95393.66;;;23.71;59.86
52923;BME280;38796;42.702;23.306;2022-07-29T05:41:46;95399.03;;;23.51;60.36
52923;BME280;38796;42.702;23.306;2022-07-29T05:43:48;95404.81;;;23.61;59.97
52923;BME280;38796;42.702;23.306;2022-07-29T05:45:46;95406.97;;;23.97;59.07
52923;BME280;38796;42.702;23.306;2022-07-29T05:47:47;95408.44;;;24.32;57.60
52923;BME280;38796;42.702;23.306;2022-07-29T05:49:45;95408.22;;;24.33;57.40
52923;BME280;38796;42.702;23.306;2022-07-29T05:51:44;95406.09;;;24.74;56.71
52923;BME280;38796;42.702;23.306;2022-07-29T05:53:44;95405.41;;;24.85;55.97
52923;BME280;38796;42.702;23.306;2022-07-29T05:55:42;95404.34;;;24.86;56.61
52923;BME280;38796;42.702;23.306;2022-07-29T05:57:41;95405.66;;;25.02;55.41
52923;BME280;38796;42.702;23.306;2022-07-29T05:59:40;95408.34;;;24.77;56.38
52923;BME280;38796;42.702;23.306;2022-07-29T06:01:38;95411.63;;;24.54;57.52
52923;BME280;38796;42.702;23.306;2022-07-29T06:03:38;95404.28;;;24.42;59.24
52923;BME280;38796;42.702;23.306;2022-07-29T06:05:37;95400.88;;;25.10;55.94
52923;BME280;38796;42.702;23.306;2022-07-29T06:07:36;95399.72;;;25.43;54.51
52923;BME280;38796;42.702;23.306;2022-07-29T06:09:45;95403.16;;;25.69;52.75
52923;BME280;38796;42.702;23.306;2022-07-29T06:11:44;95408.88;;;25.79;52.69
52923;BME280;38796;42.702;23.306;2022-07-29T06:13:42;95410.94;;;25.77;53.09
52923;BME280;38796;42.702;23.306;2022-07-29T06:15:40;95410.56;;;25.36;54.06
52923;BME280;38796;42.702;23.306;2022-07-29T06:17:39;95409.34;;;25.07;55.48
52923;BME280;38796;42.702;23.306;2022-07-29T06:19:58;95407.00;;;24.92;55.24
52923;BME280;38796;42.702;23.306;2022-07-29T06:21:56;95413.19;;;24.68;55.28
52923;BME280;38796;42.702;23.306;2022-07-29T06:23:55;95415.28;;;24.66;55.42
52923;BME280;38796;42.702;23.306;2022-07-29T06:25:53;95411.16;;;24.63;56.03
52923;BME280;38796;42.702;23.306;2022-07-29T06:27:51;95400.94;;;24.72;55.91
52923;BME280;38796;42.702;23.306;2022-07-29T06:29:50;95404.31;;;24.67;56.27
52923;BME280;38796;42.702;23.306;2022-07-29T06:31:48;95401.47;;;24.81;56.25
52923;BME280;38796;42.702;23.306;2022-07-29T06:33:46;95403.59;;;24.79;55.93
52923;BME280;38796;42.702;23.306;2022-07-29T06:35:46;95396.81;;;24.94;55.01
52923;BME280;38796;42.702;23.306;2022-07-29T06:37:49;95399.47;;;24.76;55.86
52923;BME280;38796;42.702;23.306;2022-07-29T06:39:51;95403.16;;;24.82;55.49
52923;BME280;38796;42.702;23.306;2022-07-29T06:42:09;95402.00;;;25.21;54.59
52923;BME280;38796;42.702;23.306;2022-07-29T06:44:08;95390.41;;;25.39;54.78
52923;BME280;38796;42.702;23.306;2022-07-29T06:46:09;95393.03;;;25.46;54.51
52923;BME280;38796;42.702;23.306;2022-07-29T06:48:08;95391.19;;;25.46;54.37
52923;BME280;38796;42.702;23.306;2022-07-29T06:50:07;95391.06;;;25.34;54.82
52923;BME280;38796;42.702;23.306;2022-07-29T06:52:10;95397.75;;;25.69;54.33
52923;BME280;38796;42.702;23.306;2022-07-29T06:54:08;95394.81;;;25.70;53.19
52923;BME280;38796;42.702;23.306;2022-07-29T06:56:07;95394.97;;;25.57;53.57
52923;BME280;38796;42.702;23.306;2022-07-29T06:58:05;95385.69;;;25.53;53.39
52923;BME280;38796;42.702;23.306;2022-07-29T07:00:05;95395.56;;;25.77;52.62
52923;BME280;38796;42.702;23.306;2022-07-29T07:02:04;95389.78;;;26.10;51.81
52923;BME280;38796;42.702;23.306;2022-07-29T07:04:03;95388.13;;;26.40;51.13
52923;BME280;38796;42.702;23.306;2022-07-29T07:06:01;95381.75;;;26.22;51.77
52923;BME280;38796;42.702;23.306;2022-07-29T07:08:01;95392.13;;;25.88;51.65
52923;BME280;38796;42.702;23.306;2022-07-29T07:10:00;95379.91;;;26.04;51.14
52923;BME280;38796;42.702;23.306;2022-07-29T07:11:58;95380.09;;;26.51;50.40
52923;BME280;38796;42.702;23.306;2022-07-29T07:13:57;95377.41;;;26.63;49.32
52923;BME280;38796;42.702;23.306;2022-07-29T07:16:00;95382.94;;;26.68;49.29
52923;BME280;38796;42.702;23.306;2022-07-29T07:17:58;95377.94;;;26.42;49.81
52923;BME280;38796;42.702;23.306;2022-07-29T07:19:57;95377.41;;;26.63;49.84
52923;BME280;38796;42.702;23.306;2022-07-29T07:21:55;95374.59;;;26.58;49.49
52923;BME280;38796;42.702;23.306;2022-07-29T07:23:55;95374.53;;;26.88;48.62
52923;BME280;38796;42.702;23.306;2022-07-29T07:25:53;95379.00;;;26.94;48.83
52923;BME280;38796;42.702;23.306;2022-07-29T07:27:51;95371.47;;;27.08;47.96
52923;BME280;38796;42.702;23.306;2022-07-29T07:29:49;95378.31;;;27.22;47.12
52923;BME280;38796;42.702;23.306;2022-07-29T07:31:48;95376.09;;;27.19;47.20
52923;BME280;38796;42.702;23.306;2022-07-29T07:33:46;95373.13;;;27.56;46.28
52923;BME280;38796;42.702;23.306;2022-07-29T07:35:45;95372.56;;;27.94;45.50
52923;BME280;38796;42.702;23.306;2022-07-29T07:37:43;95380.94;;;27.93;45.62
52923;BME280;38796;42.702;23.306;2022-07-29T07:39:43;95378.78;;;27.95;44.62
52923;BME280;38796;42.702;23.306;2022-07-29T07:41:41;95367.00;;;28.01;45.65
52923;BME280;38796;42.702;23.306;2022-07-29T07:43:39;95371.91;;;28.44;44.54
52923;BME280;38796;42.702;23.306;2022-07-29T07:45:38;95369.72;;;28.30;44.44
52923;BME280;38796;42.702;23.306;2022-07-29T07:47:37;95377.59;;;28.60;43.55
52923;BME280;38796;42.702;23.306;2022-07-29T07:49:36;95380.97;;;28.67;43.10
52923;BME280;38796;42.702;23.306;2022-07-29T07:51:37;95367.09;;;28.46;43.68
52923;BME280;38796;42.702;23.306;2022-07-29T07:53:35;95380.41;;;28.08;44.38
52923;BME280;38796;42.702;23.306;2022-07-29T07:55:39;95381.78;;;28.50;44.00
52923;BME280;38796;42.702;23.306;2022-07-29T07:57:58;95375.53;;;28.21;44.47
52923;BME280;38796;42.702;23.306;2022-07-29T07:59:56;95378.69;;;28.76;43.79
52923;BME280;38796;42.702;23.306;2022-07-29T08:01:54;95372.94;;;28.72;42.71
52923;BME280;38796;42.702;23.306;2022-07-29T08:03:53;95358.16;;;29.13;42.45
52923;BME280;38796;42.702;23.306;2022-07-29T08:05:51;95369.22;;;28.95;43.32
52923;BME280;38796;42.702;23.306;2022-07-29T08:07:51;95366.81;;;29.49;41.98
52923;BME280;38796;42.702;23.306;2022-07-29T08:09:49;95366.03;;;29.92;40.97
52923;BME280;38796;42.702;23.306;2022-07-29T08:11:49;95367.75;;;30.21;40.50
52923;BME280;38796;42.702;23.306;2022-07-29T08:13:48;95365.19;;;30.14;40.48
52923;BME280;38796;42.702;23.306;2022-07-29T08:15:46;95364.13;;;29.93;40.67
52923;BME280;38796;42.702;23.306;2022-07-29T08:17:44;95361.31;;;29.83;40.34
52923;BME280;38796;42.702;23.306;2022-07-29T08:19:43;95367.13;;;30.95;38.28
52923;BME280;38796;42.702;23.306;2022-07-29T08:21:41;95359.47;;;31.29;37.30
52923;BME280;38796;42.702;23.306;2022-07-29T08:23:39;95366.44;;;32.10;35.80
52923;BME280;38796;42.702;23.306;2022-07-29T08:25:49;95364.16;;;32.64;34.90
52923;BME280;38796;42.702;23.306;2022-07-29T08:27:48;95360.88;;;32.88;33.85
52923;BME280;38796;42.702;23.306;2022-07-29T08:29:47;95368.78;;;32.89;33.76
52923;BME280;38796;42.702;23.306;2022-07-29T08:31:45;95357.09;;;33.04;33.16
52923;BME280;38796;42.702;23.306;2022-07-29T08:33:44;95354.81;;;32.40;34.98
52923;BME280;38796;42.702;23.306;2022-07-29T08:35:42;95354.53;;;33.64;32.58
52923;BME280;38796;42.702;23.306;2022-07-29T08:37:40;95363.53;;;33.64;32.32
52923;BME280;38796;42.702;23.306;2022-07-29T08:39:39;95366.56;;;32.45;34.44
52923;BME280;38796;42.702;23.306;2022-07-29T08:41:37;95356.81;;;33.11;33.33
52923;BME280;38796;42.702;23.306;2022-07-29T08:43:53;95354.34;;;33.14;32.95
52923;BME280;38796;42.702;23.306;2022-07-29T08:45:52;95351.59;;;33.35;32.86
52923;BME280;38796;42.702;23.306;2022-07-29T08:47:50;95357.63;;;32.96;33.44
52923;BME280;38796;42.702;23.306;2022-07-29T08:49:48;95356.19;;;33.60;31.96
52923;BME280;38796;42.702;23.306;2022-07-29T08:51:47;95349.59;;;33.76;31.95
52923;BME280;38796;42.702;23.306;2022-07-29T08:53:47;95354.69;;;33.98;31.40
52923;BME280;38796;42.702;23.306;2022-07-29T08:55:49;95339.66;;;34.06;31.09
52923;BME280;38796;42.702;23.306;2022-07-29T08:57:47;95345.34;;;35.32;29.60
52923;BME280;38796;42.702;23.306;2022-07-29T08:59:52;95338.91;;;36.38;27.97
52923;BME280;38796;42.702;23.306;2022-07-29T09:01:52;95341.72;;;37.09;26.79
52923;BME280;38796;42.702;23.306;2022-07-29T09:03:55;95344.13;;;36.40;27.84
52923;BME280;38796;42.702;23.306;2022-07-29T09:05:54;95340.88;;;36.75;27.55
52923;BME280;38796;42.702;23.306;2022-07-29T09:07:52;95331.41;;;37.33;26.12
52923;BME280;38796;42.702;23.306;2022-07-29T09:09:51;95330.22;;;35.88;27.78
52923;BME280;38796;42.702;23.306;2022-07-29T09:11:51;95324.34;;;36.62;27.03
52923;BME280;38796;42.702;23.306;2022-07-29T09:13:51;95330.91;;;36.23;27.15
52923;BME280;38796;42.702;23.306;2022-07-29T09:15:50;95328.56;;;35.68;27.43
52923;BME280;38796;42.702;23.306;2022-07-29T09:17:50;95328.38;;;35.83;27.83
52923;BME280;38796;42.702;23.306;2022-07-29T09:19:48;95332.31;;;36.96;26.46
52923;BME280;38796;42.702;23.306;2022-07-29T09:21:49;95321.25;;;38.30;24.66
52923;BME280;38796;42.702;23.306;2022-07-29T09:24:00;95327.38;;;38.27;24.57
52923;BME280;38796;42.702;23.306;2022-07-29T09:26:05;95326.25;;;38.28;24.41
52923;BME280;38796;42.702;23.306;2022-07-29T09:28:07;95323.97;;;38.80;24.25
52923;BME280;38796;42.702;23.306;2022-07-29T09:30:08;95327.28;;;37.77;24.27
52923;BME280;38796;42.702;23.306;2022-07-29T09:32:10;95337.88;;;37.23;24.83
52923;BME280;38796;42.702;23.306;2022-07-29T09:34:09;95321.47;;;36.86;25.05
52923;BME280;38796;42.702;23.306;2022-07-29T09:36:09;95331.09;;;37.35;24.50
52923;BME280;38796;42.702;23.306;2022-07-29T09:38:11;95334.34;;;36.52;25.82
52923;BME280;38796;42.702;23.306;2022-07-29T09:40:14;95331.50;;;36.95;25.45
52923;BME280;38796;42.702;23.306;2022-07-29T09:42:13;95322.41;;;37.74;24.59
52923;BME280;38796;42.702;23.306;2022-07-29T09:44:12;95322.44;;;38.02;23.96
52923;BME280;38796;42.702;23.306;2022-07-29T09:46:12;95316.41;;;37.25;24.32
52923;BME280;38796;42.702;23.306;2022-07-29T09:48:16;95321.66;;;36.19;25.98
52923;BME280;38796;42.702;23.306;2022-07-29T09:50:14;95321.38;;;35.96;26.41
52923;BME280;38796;42.702;23.306;2022-07-29T09:52:16;95316.97;;;35.95;26.86
52923;BME280;38796;42.702;23.306;2022-07-29T09:54:24;95316.44;;;35.74;27.30
52923;BME280;38796;42.702;23.306;2022-07-29T09:56:39;95310.13;;;36.92;25.86
52923;BME280;38796;42.702;23.306;2022-07-29T09:58:38;95300.94;;;35.11;27.82
52923;BME280;38796;42.702;23.306;2022-07-29T10:00:41;95302.81;;;35.69;27.43
52923;BME280;38796;42.702;23.306;2022-07-29T10:02:41;95300.63;;;34.84;28.44
52923;BME280;38796;42.702;23.306;2022-07-29T10:04:42;95304.59;;;35.31;27.87
52923;BME280;38796;42.702;23.306;2022-07-29T10:06:55;95303.59;;;34.87;28.58
52923;BME280;38796;42.702;23.306;2022-07-29T10:09:07;95296.97;;;35.52;27.80
52923;BME280;38796;42.702;23.306;2022-07-29T10:11:10;95292.69;;;35.17;27.72
52923;BME280;38796;42.702;23.306;2022-07-29T10:13:11;95286.16;;;35.84;27.33
52923;BME280;38796;42.702;23.306;2022-07-29T10:15:12;95284.75;;;36.30;25.79
52923;BME280;38796;42.702;23.306;2022-07-29T10:17:10;95273.25;;;35.42;27.20
52923;BME280;38796;42.702;23.306;2022-07-29T10:19:09;95274.50;;;34.97;28.16
52923;BME280;38796;42.702;23.306;2022-07-29T10:21:09;95276.00;;;35.66;26.82
52923;BME280;38796;42.702;23.306;2022-07-29T10:23:28;95280.69;;;35.36;26.77
52923;BME280;38796;42.702;23.306;2022-07-29T10:25:45;95273.41;;;34.98;27.81
52923;BME280;38796;42.702;23.306;2022-07-29T10:27:44;95271.22;;;35.00;28.28
52923;BME280;38796;42.702;23.306;2022-07-29T10:29:43;95273.16;;;34.65;29.38
52923;BME280;38796;42.702;23.306;2022-07-29T10:31:48;95272.97;;;35.68;27.61
52923;BME280;38796;42.702;23.306;2022-07-29T10:33:56;95266.47;;;36.25;26.57